sensor_id;sensor_type;location;lat;lon;timestamp;temperature;humidity
27619;DHT22;15039;50.830;4.730;2023-05-23T00:00:46;14.40;99.90
27619;DHT22;15039;50.830;4.730;2023-05-23T00:03:12;14.40;99.90
27619;DHT22;15039;50.830;4.730;2023-05-23T00:05:38;14.30;99.90
27619;DHT22;15039;50.830;4.730;2023-05-23T00:08:03;14.30;99.90
27619;DHT22;15039;50.830;4.730;2023-05-23T00:10:29;14.40;99.90
27619;DHT22;15039;50.830;4.730;2023-05-23T00:12:55;14.40;99.90
27619;DHT22;15039;50.830;4.730;2023-05-23T00:15:22;14.40;99.90
27619;DHT22;15039;50.830;4.730;2023-05-23T00:17:48;14.50;99.90
27619;DHT22;15039;50.830;4.730;2023-05-23T00:20:13;14.60;99.90
27619;DHT22;15039;50.830;4.730;2023-05-23T00:22:40;14.60;99.90
27619;DHT22;15039;50.830;4.730;2023-05-23T00:25:10;14.60;99.90
27619;DHT22;15039;50.830;4.730;2023-05-23T00:27:37;14.70;99.90
27619;DHT22;15039;50.830;4.730;2023-05-23T00:30:06;14.60;99.90
27619;DHT22;15039;50.830;4.730;2023-05-23T00:32:32;14.60;99.90
27619;DHT22;15039;50.830;4.730;2023-05-23T00:34:59;14.60;99.90
27619;DHT22;15039;50.830;4.730;2023-05-23T00:37:25;14.50;99.90
27619;DHT22;15039;50.830;4.730;2023-05-23T00:39:52;14.60;99.90
27619;DHT22;15039;50.830;4.730;2023-05-23T00:42:19;14.60;99.90
27619;DHT22;15039;50.830;4.730;2023-05-23T00:44:45;14.50;99.90
27619;DHT22;15039;50.830;4.730;2023-05-23T00:47:12;14.60;99.90
27619;DHT22;15039;50.830;4.730;2023-05-23T00:49:38;14.70;99.90
27619;DHT22;15039;50.830;4.730;2023-05-23T00:52:05;14.50;99.90
27619;DHT22;15039;50.830;4.730;2023-05-23T00:54:33;14.40;99.90
27619;DHT22;15039;50.830;4.730;2023-05-23T00:56:59;14.40;99.90
27619;DHT22;15039;50.830;4.730;2023-05-23T00:59:25;14.40;99.90
27619;DHT22;15039;50.830;4.730;2023-05-23T01:01:51;14.40;99.90
27619;DHT22;15039;50.830;4.730;2023-05-23T01:04:19;14.50;99.90
27619;DHT22;15039;50.830;4.730;2023-05-23T01:06:45;14.70;99.90
27619;DHT22;15039;50.830;4.730;2023-05-23T01:09:14;14.60;99.90
27619;DHT22;15039;50.830;4.730;2023-05-23T01:14:48;14.80;99.90
27619;DHT22;15039;50.830;4.730;2023-05-23T01:17:28;14.80;99.90
27619;DHT22;15039;50.830;4.730;2023-05-23T01:20:00;14.70;99.90
27619;DHT22;15039;50.830;4.730;2023-05-23T01:28:31;14.50;99.90
27619;DHT22;15039;50.830;4.730;2023-05-23T01:31:01;14.50;99.90
27619;DHT22;15039;50.830;4.730;2023-05-23T01:33:28;14.50;99.90
27619;DHT22;15039;50.830;4.730;2023-05-23T01:35:57;14.40;99.90
27619;DHT22;15039;50.830;4.730;2023-05-23T01:38:25;14.40;99.90
27619;DHT22;15039;50.830;4.730;2023-05-23T01:40:52;14.40;99.90
27619;DHT22;15039;50.830;4.730;2023-05-23T01:43:18;14.40;99.90
27619;DHT22;15039;50.830;4.730;2023-05-23T01:45:43;14.40;99.90
27619;DHT22;15039;50.830;4.730;2023-05-23T01:48:10;14.40;99.90
27619;DHT22;15039;50.830;4.730;2023-05-23T01:50:37;14.40;99.90
27619;DHT22;15039;50.830;4.730;2023-05-23T01:53:06;14.50;99.90
27619;DHT22;15039;50.830;4.730;2023-05-23T01:55:35;14.50;99.90
27619;DHT22;15039;50.830;4.730;2023-05-23T01:58:04;14.60;99.90
27619;DHT22;15039;50.830;4.730;2023-05-23T02:00:30;14.70;99.90
27619;DHT22;15039;50.830;4.730;2023-05-23T02:02:56;14.70;99.90
27619;DHT22;15039;50.830;4.730;2023-05-23T02:05:22;14.70;99.90
27619;DHT22;15039;50.830;4.730;2023-05-23T02:07:48;14.70;99.90
27619;DHT22;15039;50.830;4.730;2023-05-23T02:10:13;14.70;99.90
27619;DHT22;15039;50.830;4.730;2023-05-23T02:12:39;14.80;99.90
27619;DHT22;15039;50.830;4.730;2023-05-23T02:15:06;14.60;99.90
27619;DHT22;15039;50.830;4.730;2023-05-23T02:17:32;14.70;99.90
27619;DHT22;15039;50.830;4.730;2023-05-23T02:19:59;14.80;99.90
27619;DHT22;15039;50.830;4.730;2023-05-23T02:22:25;14.80;99.90
27619;DHT22;15039;50.830;4.730;2023-05-23T02:24:51;14.90;99.90
27619;DHT22;15039;50.830;4.730;2023-05-23T02:27:21;14.90;99.90
27619;DHT22;15039;50.830;4.730;2023-05-23T02:29:46;14.80;99.90
27619;DHT22;15039;50.830;4.730;2023-05-23T02:32:14;14.90;99.90
27619;DHT22;15039;50.830;4.730;2023-05-23T02:34:40;14.80;99.90
27619;DHT22;15039;50.830;4.730;2023-05-23T02:37:06;14.80;99.90
27619;DHT22;15039;50.830;4.730;2023-05-23T02:39:33;14.80;99.90
27619;DHT22;15039;50.830;4.730;2023-05-23T02:41:59;14.90;99.90
27619;DHT22;15039;50.830;4.730;2023-05-23T02:44:25;14.80;99.90
27619;DHT22;15039;50.830;4.730;2023-05-23T02:46:50;14.80;99.90
27619;DHT22;15039;50.830;4.730;2023-05-23T02:49:16;14.70;99.90
27619;DHT22;15039;50.830;4.730;2023-05-23T02:51:42;14.80;99.90
27619;DHT22;15039;50.830;4.730;2023-05-23T02:54:08;14.60;99.90
27619;DHT22;15039;50.830;4.730;2023-05-23T02:56:34;14.40;99.90
27619;DHT22;15039;50.830;4.730;2023-05-23T02:58:59;14.40;99.90
27619;DHT22;15039;50.830;4.730;2023-05-23T03:01:25;14.40;99.90
27619;DHT22;15039;50.830;4.730;2023-05-23T03:03:51;14.40;99.90
27619;DHT22;15039;50.830;4.730;2023-05-23T03:06:17;14.40;99.90
27619;DHT22;15039;50.830;4.730;2023-05-23T03:08:43;14.30;99.90
27619;DHT22;15039;50.830;4.730;2023-05-23T03:11:09;14.40;99.90
27619;DHT22;15039;50.830;4.730;2023-05-23T03:13:35;14.30;99.90
27619;DHT22;15039;50.830;4.730;2023-05-23T03:16:00;14.30;99.90
27619;DHT22;15039;50.830;4.730;2023-05-23T03:18:26;14.50;99.90
27619;DHT22;15039;50.830;4.730;2023-05-23T03:20:53;14.40;99.90
27619;DHT22;15039;50.830;4.730;2023-05-23T03:23:18;14.30;99.90
27619;DHT22;15039;50.830;4.730;2023-05-23T03:25:44;14.40;99.90
27619;DHT22;15039;50.830;4.730;2023-05-23T03:28:10;14.40;99.90
27619;DHT22;15039;50.830;4.730;2023-05-23T03:30:39;14.40;99.90
27619;DHT22;15039;50.830;4.730;2023-05-23T03:33:04;14.40;99.90
27619;DHT22;15039;50.830;4.730;2023-05-23T03:35:31;14.40;99.90
27619;DHT22;15039;50.830;4.730;2023-05-23T03:37:57;14.40;99.90
27619;DHT22;15039;50.830;4.730;2023-05-23T03:40:23;14.40;99.90
27619;DHT22;15039;50.830;4.730;2023-05-23T03:43:06;14.20;99.90
27619;DHT22;15039;50.830;4.730;2023-05-23T03:45:32;14.20;99.90
27619;DHT22;15039;50.830;4.730;2023-05-23T03:47:59;14.10;99.90
27619;DHT22;15039;50.830;4.730;2023-05-23T03:50:25;14.00;99.90
27619;DHT22;15039;50.830;4.730;2023-05-23T03:52:52;14.00;99.90
27619;DHT22;15039;50.830;4.730;2023-05-23T03:55:19;14.00;99.90
27619;DHT22;15039;50.830;4.730;2023-05-23T03:57:47;13.90;99.90
27619;DHT22;15039;50.830;4.730;2023-05-23T04:00:17;13.80;99.90
27619;DHT22;15039;50.830;4.730;2023-05-23T04:02:45;14.00;99.90
27619;DHT22;15039;50.830;4.730;2023-05-23T04:05:11;14.00;99.90
27619;DHT22;15039;50.830;4.730;2023-05-23T04:07:38;14.00;99.90
27619;DHT22;15039;50.830;4.730;2023-05-23T04:10:09;13.90;99.90
27619;DHT22;15039;50.830;4.730;2023-05-23T04:12:35;13.90;99.90
27619;DHT22;15039;50.830;4.730;2023-05-23T04:15:01;13.80;99.90
27619;DHT22;15039;50.830;4.730;2023-05-23T04:17:28;13.90;99.90
27619;DHT22;15039;50.830;4.730;2023-05-23T04:19:56;13.90;99.90
27619;DHT22;15039;50.830;4.730;2023-05-23T04:22:28;13.80;99.90
27619;DHT22;15039;50.830;4.730;2023-05-23T04:24:54;13.70;99.90
27619;DHT22;15039;50.830;4.730;2023-05-23T04:27:20;13.70;99.90
27619;DHT22;15039;50.830;4.730;2023-05-23T04:29:46;13.70;99.90
27619;DHT22;15039;50.830;4.730;2023-05-23T04:32:13;13.60;99.90
27619;DHT22;15039;50.830;4.730;2023-05-23T04:34:41;13.70;99.90
27619;DHT22;15039;50.830;4.730;2023-05-23T04:37:06;13.80;99.90
27619;DHT22;15039;50.830;4.730;2023-05-23T04:39:33;14.00;99.90
27619;DHT22;15039;50.830;4.730;2023-05-23T04:41:59;14.00;99.90
27619;DHT22;15039;50.830;4.730;2023-05-23T04:44:24;14.10;99.90
27619;DHT22;15039;50.830;4.730;2023-05-23T04:46:54;14.20;99.90
27619;DHT22;15039;50.830;4.730;2023-05-23T04:49:23;14.30;99.90
27619;DHT22;15039;50.830;4.730;2023-05-23T04:51:50;14.10;99.90
27619;DHT22;15039;50.830;4.730;2023-05-23T04:54:16;14.20;99.90
27619;DHT22;15039;50.830;4.730;2023-05-23T04:56:43;14.30;99.90
27619;DHT22;15039;50.830;4.730;2023-05-23T04:59:09;14.50;99.90
27619;DHT22;15039;50.830;4.730;2023-05-23T05:01:35;14.40;99.90
27619;DHT22;15039;50.830;4.730;2023-05-23T05:04:05;14.50;99.90
27619;DHT22;15039;50.830;4.730;2023-05-23T05:06:31;14.60;99.90
27619;DHT22;15039;50.830;4.730;2023-05-23T05:08:56;14.60;99.90
27619;DHT22;15039;50.830;4.730;2023-05-23T05:11:22;14.60;99.90
27619;DHT22;15039;50.830;4.730;2023-05-23T05:13:48;14.60;99.90
27619;DHT22;15039;50.830;4.730;2023-05-23T05:16:13;14.50;99.90
27619;DHT22;15039;50.830;4.730;2023-05-23T05:18:39;14.50;99.90
27619;DHT22;15039;50.830;4.730;2023-05-23T05:21:06;14.50;99.90
27619;DHT22;15039;50.830;4.730;2023-05-23T05:23:32;14.50;99.90
27619;DHT22;15039;50.830;4.730;2023-05-23T05:25:58;14.40;99.90
27619;DHT22;15039;50.830;4.730;2023-05-23T05:28:26;14.30;99.90
27619;DHT22;15039;50.830;4.730;2023-05-23T05:30:52;14.50;99.90
27619;DHT22;15039;50.830;4.730;2023-05-23T05:33:19;14.60;99.90
27619;DHT22;15039;50.830;4.730;2023-05-23T05:35:45;14.60;99.90
27619;DHT22;15039;50.830;4.730;2023-05-23T05:38:11;14.70;99.90
27619;DHT22;15039;50.830;4.730;2023-05-23T05:40:36;14.50;99.90
27619;DHT22;15039;50.830;4.730;2023-05-23T05:43:02;14.60;99.90
27619;DHT22;15039;50.830;4.730;2023-05-23T05:45:29;14.60;99.90
27619;DHT22;15039;50.830;4.730;2023-05-23T05:47:57;14.60;99.90
27619;DHT22;15039;50.830;4.730;2023-05-23T05:50:23;14.60;99.90
27619;DHT22;15039;50.830;4.730;2023-05-23T05:52:48;14.60;99.90
27619;DHT22;15039;50.830;4.730;2023-05-23T05:55:21;14.60;99.90
27619;DHT22;15039;50.830;4.730;2023-05-23T05:57:47;14.70;99.90
27619;DHT22;15039;50.830;4.730;2023-05-23T06:00:13;14.70;99.90
27619;DHT22;15039;50.830;4.730;2023-05-23T06:02:43;14.80;99.90
27619;DHT22;15039;50.830;4.730;2023-05-23T06:05:09;15.00;99.90
27619;DHT22;15039;50.830;4.730;2023-05-23T06:07:39;15.20;99.90
27619;DHT22;15039;50.830;4.730;2023-05-23T06:10:06;15.00;99.90
27619;DHT22;15039;50.830;4.730;2023-05-23T06:12:32;14.80;99.90
27619;DHT22;15039;50.830;4.730;2023-05-23T06:14:58;14.80;99.90
27619;DHT22;15039;50.830;4.730;2023-05-23T06:17:24;14.80;99.90
27619;DHT22;15039;50.830;4.730;2023-05-23T06:19:50;14.70;99.90
27619;DHT22;15039;50.830;4.730;2023-05-23T06:22:16;14.50;99.90
27619;DHT22;15039;50.830;4.730;2023-05-23T06:24:42;14.40;99.90
27619;DHT22;15039;50.830;4.730;2023-05-23T06:27:08;14.30;99.90
27619;DHT22;15039;50.830;4.730;2023-05-23T06:29:34;14.10;99.90
27619;DHT22;15039;50.830;4.730;2023-05-23T06:32:02;14.20;99.90
27619;DHT22;15039;50.830;4.730;2023-05-23T06:34:28;14.10;99.90
27619;DHT22;15039;50.830;4.730;2023-05-23T06:36:55;14.00;99.90
27619;DHT22;15039;50.830;4.730;2023-05-23T06:39:21;14.00;99.90
27619;DHT22;15039;50.830;4.730;2023-05-23T06:41:47;14.10;99.90
27619;DHT22;15039;50.830;4.730;2023-05-23T06:44:13;14.10;99.90
27619;DHT22;15039;50.830;4.730;2023-05-23T06:46:39;14.10;99.90
27619;DHT22;15039;50.830;4.730;2023-05-23T06:49:05;14.00;99.90
27619;DHT22;15039;50.830;4.730;2023-05-23T06:51:30;14.10;99.90
27619;DHT22;15039;50.830;4.730;2023-05-23T06:53:57;14.10;99.90
27619;DHT22;15039;50.830;4.730;2023-05-23T06:56:23;14.20;99.90
27619;DHT22;15039;50.830;4.730;2023-05-23T06:58:49;14.30;99.90
27619;DHT22;15039;50.830;4.730;2023-05-23T07:01:14;14.20;99.90
27619;DHT22;15039;50.830;4.730;2023-05-23T07:03:40;14.20;99.90
27619;DHT22;15039;50.830;4.730;2023-05-23T07:06:09;14.10;99.90
27619;DHT22;15039;50.830;4.730;2023-05-23T07:08:35;14.00;99.90
27619;DHT22;15039;50.830;4.730;2023-05-23T07:11:00;14.10;99.90
27619;DHT22;15039;50.830;4.730;2023-05-23T07:13:29;14.20;99.90
27619;DHT22;15039;50.830;4.730;2023-05-23T07:15:55;14.30;99.90
27619;DHT22;15039;50.830;4.730;2023-05-23T07:18:21;14.40;99.90
27619;DHT22;15039;50.830;4.730;2023-05-23T07:20:47;14.60;99.90
27619;DHT22;15039;50.830;4.730;2023-05-23T07:23:16;14.60;99.90
27619;DHT22;15039;50.830;4.730;2023-05-23T07:25:41;14.50;99.90
27619;DHT22;15039;50.830;4.730;2023-05-23T07:28:08;14.40;99.90
27619;DHT22;15039;50.830;4.730;2023-05-23T07:30:34;14.50;99.90
27619;DHT22;15039;50.830;4.730;2023-05-23T07:33:00;14.60;99.90
27619;DHT22;15039;50.830;4.730;2023-05-23T07:35:26;14.80;99.90
27619;DHT22;15039;50.830;4.730;2023-05-23T07:37:52;14.90;99.90
27619;DHT22;15039;50.830;4.730;2023-05-23T07:40:18;15.10;99.90
27619;DHT22;15039;50.830;4.730;2023-05-23T07:42:44;15.10;99.90
27619;DHT22;15039;50.830;4.730;2023-05-23T07:45:10;15.10;99.90
27619;DHT22;15039;50.830;4.730;2023-05-23T07:47:36;14.90;99.90
27619;DHT22;15039;50.830;4.730;2023-05-23T07:50:03;14.80;99.90
27619;DHT22;15039;50.830;4.730;2023-05-23T07:52:29;14.90;99.90
27619;DHT22;15039;50.830;4.730;2023-05-23T07:54:57;14.80;99.90
27619;DHT22;15039;50.830;4.730;2023-05-23T07:57:22;14.70;99.90
27619;DHT22;15039;50.830;4.730;2023-05-23T07:59:52;14.70;99.90
27619;DHT22;15039;50.830;4.730;2023-05-23T08:02:36;14.80;99.90
27619;DHT22;15039;50.830;4.730;2023-05-23T08:05:02;14.80;99.90
27619;DHT22;15039;50.830;4.730;2023-05-23T08:07:28;14.70;99.90
27619;DHT22;15039;50.830;4.730;2023-05-23T08:09:53;14.60;99.90
27619;DHT22;15039;50.830;4.730;2023-05-23T08:12:19;14.60;99.90
27619;DHT22;15039;50.830;4.730;2023-05-23T08:14:45;14.70;99.90
27619;DHT22;15039;50.830;4.730;2023-05-23T08:17:12;14.50;99.90
27619;DHT22;15039;50.830;4.730;2023-05-23T08:19:37;14.60;99.90
27619;DHT22;15039;50.830;4.730;2023-05-23T08:22:03;14.70;99.90
27619;DHT22;15039;50.830;4.730;2023-05-23T08:24:29;14.70;99.90
27619;DHT22;15039;50.830;4.730;2023-05-23T08:26:55;14.60;99.90
27619;DHT22;15039;50.830;4.730;2023-05-23T08:29:21;14.60;99.90
27619;DHT22;15039;50.830;4.730;2023-05-23T08:31:47;14.70;99.90
27619;DHT22;15039;50.830;4.730;2023-05-23T08:34:12;14.80;99.90
27619;DHT22;15039;50.830;4.730;2023-05-23T08:36:39;14.80;99.90
27619;DHT22;15039;50.830;4.730;2023-05-23T08:39:07;15.00;99.90
27619;DHT22;15039;50.830;4.730;2023-05-23T08:41:34;15.10;99.90
27619;DHT22;15039;50.830;4.730;2023-05-23T08:43:59;15.00;99.90
27619;DHT22;15039;50.830;4.730;2023-05-23T08:46:25;15.30;99.90
27619;DHT22;15039;50.830;4.730;2023-05-23T08:48:53;15.40;99.90
27619;DHT22;15039;50.830;4.730;2023-05-23T08:51:25;15.80;99.90
27619;DHT22;15039;50.830;4.730;2023-05-23T08:53:51;16.00;99.90
27619;DHT22;15039;50.830;4.730;2023-05-23T08:56:25;16.10;99.90
27619;DHT22;15039;50.830;4.730;2023-05-23T08:58:52;16.20;99.90
27619;DHT22;15039;50.830;4.730;2023-05-23T09:01:19;16.30;99.90
27619;DHT22;15039;50.830;4.730;2023-05-23T09:03:45;16.40;99.90
27619;DHT22;15039;50.830;4.730;2023-05-23T09:06:11;16.30;99.90
27619;DHT22;15039;50.830;4.730;2023-05-23T09:08:38;16.00;99.90
27619;DHT22;15039;50.830;4.730;2023-05-23T09:11:05;15.80;99.90
27619;DHT22;15039;50.830;4.730;2023-05-23T09:13:34;15.80;99.90
27619;DHT22;15039;50.830;4.730;2023-05-23T09:16:01;15.70;99.90
27619;DHT22;15039;50.830;4.730;2023-05-23T09:18:35;15.70;99.90
27619;DHT22;15039;50.830;4.730;2023-05-23T09:21:01;15.70;99.90
27619;DHT22;15039;50.830;4.730;2023-05-23T09:23:31;15.70;99.90
27619;DHT22;15039;50.830;4.730;2023-05-23T09:26:04;16.00;99.90
27619;DHT22;15039;50.830;4.730;2023-05-23T09:28:37;16.10;99.90
27619;DHT22;15039;50.830;4.730;2023-05-23T09:31:07;16.00;99.90
27619;DHT22;15039;50.830;4.730;2023-05-23T09:33:42;16.30;99.90
27619;DHT22;15039;50.830;4.730;2023-05-23T09:36:08;16.10;99.90
27619;DHT22;15039;50.830;4.730;2023-05-23T09:38:38;16.20;99.90
27619;DHT22;15039;50.830;4.730;2023-05-23T09:41:04;16.20;99.90
27619;DHT22;15039;50.830;4.730;2023-05-23T09:43:30;16.20;99.90
27619;DHT22;15039;50.830;4.730;2023-05-23T09:46:00;16.30;99.90
27619;DHT22;15039;50.830;4.730;2023-05-23T09:48:31;16.50;99.90
27619;DHT22;15039;50.830;4.730;2023-05-23T09:50:57;16.40;99.90
27619;DHT22;15039;50.830;4.730;2023-05-23T09:53:23;16.10;99.90
27619;DHT22;15039;50.830;4.730;2023-05-23T09:55:50;16.30;99.90
27619;DHT22;15039;50.830;4.730;2023-05-23T09:58:19;16.20;99.90
27619;DHT22;15039;50.830;4.730;2023-05-23T10:00:49;16.30;99.90
27619;DHT22;15039;50.830;4.730;2023-05-23T10:03:21;16.40;99.90
27619;DHT22;15039;50.830;4.730;2023-05-23T10:05:50;16.40;99.90
27619;DHT22;15039;50.830;4.730;2023-05-23T10:08:18;16.20;99.90
27619;DHT22;15039;50.830;4.730;2023-05-23T10:13:26;15.80;99.90
27619;DHT22;15039;50.830;4.730;2023-05-23T10:16:13;15.90;99.90
27619;DHT22;15039;50.830;4.730;2023-05-23T10:18:43;15.90;99.90
27619;DHT22;15039;50.830;4.730;2023-05-23T10:21:10;16.00;99.90
27619;DHT22;15039;50.830;4.730;2023-05-23T10:23:37;16.20;99.90
27619;DHT22;15039;50.830;4.730;2023-05-23T10:26:03;16.20;99.90
27619;DHT22;15039;50.830;4.730;2023-05-23T10:28:33;16.20;99.90
27619;DHT22;15039;50.830;4.730;2023-05-23T10:30:59;16.00;99.90
27619;DHT22;15039;50.830;4.730;2023-05-23T10:33:26;15.90;99.90
27619;DHT22;15039;50.830;4.730;2023-05-23T10:41:32;15.90;99.90
27619;DHT22;15039;50.830;4.730;2023-05-23T10:44:22;16.20;99.90
27619;DHT22;15039;50.830;4.730;2023-05-23T10:46:57;16.50;99.90
27619;DHT22;15039;50.830;4.730;2023-05-23T10:49:45;16.60;99.90
27619;DHT22;15039;50.830;4.730;2023-05-23T10:52:23;16.50;99.90
27619;DHT22;15039;50.830;4.730;2023-05-23T10:54:54;16.60;99.90
27619;DHT22;15039;50.830;4.730;2023-05-23T10:57:25;16.70;99.90
27619;DHT22;15039;50.830;4.730;2023-05-23T10:59:53;16.70;99.90
27619;DHT22;15039;50.830;4.730;2023-05-23T11:02:25;16.70;99.90
27619;DHT22;15039;50.830;4.730;2023-05-23T11:05:23;16.80;99.90
27619;DHT22;15039;50.830;4.730;2023-05-23T11:08:10;16.60;99.90
27619;DHT22;15039;50.830;4.730;2023-05-23T11:11:02;16.70;99.90
27619;DHT22;15039;50.830;4.730;2023-05-23T11:13:56;17.00;99.90
27619;DHT22;15039;50.830;4.730;2023-05-23T11:16:33;17.10;99.90
27619;DHT22;15039;50.830;4.730;2023-05-23T11:19:27;17.50;99.90
27619;DHT22;15039;50.830;4.730;2023-05-23T11:21:59;17.70;99.90
27619;DHT22;15039;50.830;4.730;2023-05-23T11:27:25;17.30;99.90
27619;DHT22;15039;50.830;4.730;2023-05-23T11:32:32;17.60;99.90
27619;DHT22;15039;50.830;4.730;2023-05-23T11:35:05;17.50;99.90
27619;DHT22;15039;50.830;4.730;2023-05-23T11:37:32;17.40;99.90
27619;DHT22;15039;50.830;4.730;2023-05-23T11:39:58;17.60;99.90
27619;DHT22;15039;50.830;4.730;2023-05-23T11:42:26;17.60;99.90
27619;DHT22;15039;50.830;4.730;2023-05-23T11:44:52;17.70;99.90
27619;DHT22;15039;50.830;4.730;2023-05-23T11:47:18;18.00;99.90
27619;DHT22;15039;50.830;4.730;2023-05-23T11:49:45;18.30;99.90
27619;DHT22;15039;50.830;4.730;2023-05-23T11:52:14;18.50;99.90
27619;DHT22;15039;50.830;4.730;2023-05-23T11:54:40;18.30;99.90
27619;DHT22;15039;50.830;4.730;2023-05-23T11:57:09;17.90;99.90
27619;DHT22;15039;50.830;4.730;2023-05-23T11:59:35;17.70;99.90
27619;DHT22;15039;50.830;4.730;2023-05-23T12:02:04;17.60;99.90
27619;DHT22;15039;50.830;4.730;2023-05-23T12:04:30;17.40;99.90
27619;DHT22;15039;50.830;4.730;2023-05-23T12:06:56;17.30;99.90
27619;DHT22;15039;50.830;4.730;2023-05-23T12:09:21;17.60;99.90
27619;DHT22;15039;50.830;4.730;2023-05-23T12:11:48;17.80;99.90
27619;DHT22;15039;50.830;4.730;2023-05-23T12:14:15;18.10;99.90
27619;DHT22;15039;50.830;4.730;2023-05-23T12:16:45;18.10;99.90
27619;DHT22;15039;50.830;4.730;2023-05-23T12:19:12;18.00;99.90
27619;DHT22;15039;50.830;4.730;2023-05-23T12:21:41;18.00;99.90
27619;DHT22;15039;50.830;4.730;2023-05-23T12:24:18;18.00;99.90
27619;DHT22;15039;50.830;4.730;2023-05-23T12:26:57;18.10;99.90
27619;DHT22;15039;50.830;4.730;2023-05-23T12:29:33;18.30;99.90
27619;DHT22;15039;50.830;4.730;2023-05-23T12:32:00;18.20;99.90
27619;DHT22;15039;50.830;4.730;2023-05-23T12:34:27;17.90;99.90
27619;DHT22;15039;50.830;4.730;2023-05-23T12:36:57;17.80;99.90
27619;DHT22;15039;50.830;4.730;2023-05-23T12:39:27;17.70;99.90
27619;DHT22;15039;50.830;4.730;2023-05-23T12:41:53;17.90;99.90
27619;DHT22;15039;50.830;4.730;2023-05-23T12:44:23;17.90;99.90
27619;DHT22;15039;50.830;4.730;2023-05-23T12:46:49;17.80;99.90
27619;DHT22;15039;50.830;4.730;2023-05-23T12:49:14;17.70;99.90
27619;DHT22;15039;50.830;4.730;2023-05-23T12:51:40;17.80;99.90
27619;DHT22;15039;50.830;4.730;2023-05-23T12:54:07;18.10;99.90
27619;DHT22;15039;50.830;4.730;2023-05-23T12:56:33;18.40;99.90
27619;DHT22;15039;50.830;4.730;2023-05-23T12:58:59;18.30;99.90
27619;DHT22;15039;50.830;4.730;2023-05-23T13:01:26;18.40;99.90
27619;DHT22;15039;50.830;4.730;2023-05-23T13:03:52;18.40;99.90
27619;DHT22;15039;50.830;4.730;2023-05-23T13:06:18;18.60;99.90
27619;DHT22;15039;50.830;4.730;2023-05-23T13:08:43;18.40;99.90
27619;DHT22;15039;50.830;4.730;2023-05-23T13:11:09;18.30;99.90
27619;DHT22;15039;50.830;4.730;2023-05-23T13:13:35;18.50;99.90
27619;DHT22;15039;50.830;4.730;2023-05-23T13:16:01;18.80;99.90
27619;DHT22;15039;50.830;4.730;2023-05-23T13:18:27;18.70;99.90
27619;DHT22;15039;50.830;4.730;2023-05-23T13:20:52;18.70;99.90
27619;DHT22;15039;50.830;4.730;2023-05-23T13:23:18;18.70;99.90
27619;DHT22;15039;50.830;4.730;2023-05-23T13:25:44;18.50;99.90
27619;DHT22;15039;50.830;4.730;2023-05-23T13:28:09;18.50;99.90
27619;DHT22;15039;50.830;4.730;2023-05-23T13:30:35;18.50;99.90
27619;DHT22;15039;50.830;4.730;2023-05-23T13:33:01;18.50;99.90
27619;DHT22;15039;50.830;4.730;2023-05-23T13:35:27;18.50;99.90
27619;DHT22;15039;50.830;4.730;2023-05-23T13:37:53;18.70;99.90
27619;DHT22;15039;50.830;4.730;2023-05-23T13:40:20;18.80;99.90
27619;DHT22;15039;50.830;4.730;2023-05-23T13:42:48;18.90;99.90
27619;DHT22;15039;50.830;4.730;2023-05-23T13:45:15;18.90;99.90
27619;DHT22;15039;50.830;4.730;2023-05-23T13:47:42;18.80;99.90
27619;DHT22;15039;50.830;4.730;2023-05-23T13:50:08;18.80;99.90
27619;DHT22;15039;50.830;4.730;2023-05-23T13:52:34;19.00;99.90
27619;DHT22;15039;50.830;4.730;2023-05-23T13:55:01;19.00;99.90
27619;DHT22;15039;50.830;4.730;2023-05-23T13:57:27;19.10;99.90
27619;DHT22;15039;50.830;4.730;2023-05-23T13:59:52;18.90;99.90
27619;DHT22;15039;50.830;4.730;2023-05-23T14:02:18;18.80;99.90
27619;DHT22;15039;50.830;4.730;2023-05-23T14:04:44;18.80;99.90
27619;DHT22;15039;50.830;4.730;2023-05-23T14:07:09;18.80;99.90
27619;DHT22;15039;50.830;4.730;2023-05-23T14:09:35;19.00;99.90
27619;DHT22;15039;50.830;4.730;2023-05-23T14:12:01;19.00;99.90
27619;DHT22;15039;50.830;4.730;2023-05-23T14:14:26;18.80;99.90
27619;DHT22;15039;50.830;4.730;2023-05-23T14:16:52;18.70;99.90
27619;DHT22;15039;50.830;4.730;2023-05-23T14:19:19;18.70;99.90
27619;DHT22;15039;50.830;4.730;2023-05-23T14:21:44;18.80;99.90
27619;DHT22;15039;50.830;4.730;2023-05-23T14:24:10;19.00;99.90
27619;DHT22;15039;50.830;4.730;2023-05-23T14:26:36;18.70;99.90
27619;DHT22;15039;50.830;4.730;2023-05-23T14:29:02;18.80;99.90
27619;DHT22;15039;50.830;4.730;2023-05-23T14:31:28;18.70;99.90
27619;DHT22;15039;50.830;4.730;2023-05-23T14:33:54;18.40;99.90
27619;DHT22;15039;50.830;4.730;2023-05-23T14:36:20;18.50;99.90
27619;DHT22;15039;50.830;4.730;2023-05-23T14:38:45;18.30;99.90
27619;DHT22;15039;50.830;4.730;2023-05-23T14:41:12;18.30;99.90
27619;DHT22;15039;50.830;4.730;2023-05-23T14:43:38;18.40;99.90
27619;DHT22;15039;50.830;4.730;2023-05-23T14:46:04;18.50;99.90
27619;DHT22;15039;50.830;4.730;2023-05-23T14:48:30;18.50;99.90
27619;DHT22;15039;50.830;4.730;2023-05-23T14:50:56;18.50;99.90
27619;DHT22;15039;50.830;4.730;2023-05-23T14:53:28;18.50;99.90
27619;DHT22;15039;50.830;4.730;2023-05-23T14:55:55;18.60;99.90
27619;DHT22;15039;50.830;4.730;2023-05-23T14:58:21;18.70;99.90
27619;DHT22;15039;50.830;4.730;2023-05-23T15:00:47;18.60;99.90
27619;DHT22;15039;50.830;4.730;2023-05-23T15:03:13;18.60;99.90
27619;DHT22;15039;50.830;4.730;2023-05-23T15:05:40;18.80;99.90
27619;DHT22;15039;50.830;4.730;2023-05-23T15:08:05;18.90;99.90
27619;DHT22;15039;50.830;4.730;2023-05-23T15:10:31;18.80;99.90
27619;DHT22;15039;50.830;4.730;2023-05-23T15:12:57;18.70;99.90
27619;DHT22;15039;50.830;4.730;2023-05-23T15:15:23;19.00;99.90
27619;DHT22;15039;50.830;4.730;2023-05-23T15:17:49;19.30;99.90
27619;DHT22;15039;50.830;4.730;2023-05-23T15:20:16;19.60;99.90
27619;DHT22;15039;50.830;4.730;2023-05-23T15:22:42;20.00;99.90
27619;DHT22;15039;50.830;4.730;2023-05-23T15:25:08;20.10;99.90
27619;DHT22;15039;50.830;4.730;2023-05-23T15:27:34;19.60;99.90
27619;DHT22;15039;50.830;4.730;2023-05-23T15:30:00;19.50;99.90
27619;DHT22;15039;50.830;4.730;2023-05-23T15:32:26;19.30;99.90
27619;DHT22;15039;50.830;4.730;2023-05-23T15:34:51;19.20;99.90
27619;DHT22;15039;50.830;4.730;2023-05-23T15:37:17;19.20;99.90
27619;DHT22;15039;50.830;4.730;2023-05-23T15:39:43;19.00;99.90
27619;DHT22;15039;50.830;4.730;2023-05-23T15:42:08;18.70;99.90
27619;DHT22;15039;50.830;4.730;2023-05-23T15:44:34;18.70;99.90
27619;DHT22;15039;50.830;4.730;2023-05-23T15:47:00;18.70;99.90
27619;DHT22;15039;50.830;4.730;2023-05-23T15:49:25;18.90;99.90
27619;DHT22;15039;50.830;4.730;2023-05-23T15:51:51;19.00;99.90
27619;DHT22;15039;50.830;4.730;2023-05-23T15:54:18;18.90;99.90